Time;durP1;ratioP1;P1;durP2;ratioP2;P2;SDS_P1;SDS_P2;PMS_P1;PMS_P2;Temp;Humidity;BMP_temperature;BMP_pressure;BME280_temperature;BME280_humidity;BME280_pressure;Samples;Min_cycle;Max_cycle;Signal;HPM_P1;HPM_P2
2023/04/07 00:02:27;;;;;;;3.50;3.20;;;18.50;43.20;;;;;;5018110;28;20242;-78
2023/04/07 00:04:56;;;;;;;3.40;3.10;;;18.40;43.20;;;;;;5017510;28;20197;-78
2023/04/07 00:07:25;;;;;;;3.20;2.90;;;18.40;43.30;;;;;;5001292;28;20209;-78
2023/04/07 00:09:52;;;;;;;3.53;3.20;;;18.40;43.20;;;;;;5017577;28;20639;-78
2023/04/07 00:12:19;;;;;;;3.30;3.00;;;18.40;43.20;;;;;;5017056;28;20224;-78
2023/04/07 00:14:46;;;;;;;3.28;2.70;;;18.40;43.30;;;;;;5017521;28;20200;-78
2023/04/07 00:17:14;;;;;;;3.05;2.85;;;18.30;43.10;;;;;;5000266;28;20204;-78
2023/04/07 00:19:42;;;;;;;3.10;2.80;;;18.30;43.20;;;;;;5016874;28;20228;-78
2023/04/07 00:22:13;;;;;;;3.30;3.00;;;18.30;43.40;;;;;;5016415;28;20229;-78
2023/04/07 00:24:42;;;;;;;3.10;2.80;;;18.30;43.50;;;;;;5017619;28;20232;-78
2023/04/07 00:27:09;;;;;;;3.13;2.72;;;18.30;43.50;;;;;;5016380;28;20291;-78
2023/04/07 00:29:37;;;;;;;3.22;2.97;;;18.20;43.40;;;;;;5000792;28;20292;-78
2023/04/07 00:32:04;;;;;;;3.03;2.70;;;18.20;43.60;;;;;;5015824;28;20601;-78
2023/04/07 00:34:32;;;;;;;2.70;2.50;;;18.20;43.70;;;;;;5015674;28;20247;-78
2023/04/07 00:36:59;;;;;;;3.25;2.95;;;18.20;43.80;;;;;;5015919;28;20196;-78
2023/04/07 00:39:27;;;;;;;3.38;2.85;;;18.20;43.80;;;;;;5016062;28;20203;-78
2023/04/07 00:41:56;;;;;;;3.38;3.05;;;18.20;43.80;;;;;;5016088;28;20217;-78
2023/04/07 00:44:24;;;;;;;3.45;2.97;;;18.10;43.80;;;;;;5016284;28;20287;-78
2023/04/07 00:46:51;;;;;;;3.25;2.95;;;18.10;43.90;;;;;;5016197;28;20224;-78
2023/04/07 00:49:18;;;;;;;3.10;2.90;;;18.10;43.70;;;;;;5016203;28;20647;-78
2023/04/07 00:51:45;;;;;;;3.17;2.83;;;18.10;43.80;;;;;;5015490;28;20304;-78
2023/04/07 00:54:12;;;;;;;3.15;2.85;;;18.10;43.70;;;;;;5016260;28;20200;-78
2023/04/07 00:56:40;;;;;;;3.15;2.88;;;18.10;43.80;;;;;;5016964;28;20211;-78
2023/04/07 00:59:09;;;;;;;3.60;3.20;;;18.00;43.90;;;;;;5016230;28;20193;-78
2023/04/07 01:01:40;;;;;;;3.45;2.92;;;18.00;44.00;;;;;;5015685;28;20207;-78
2023/04/07 01:04:09;;;;;;;3.40;3.10;;;18.00;44.10;;;;;;5014978;28;20243;-78
2023/04/07 01:06:38;;;;;;;3.28;2.92;;;18.00;44.20;;;;;;5030842;23;20323;-78
2023/04/07 01:09:07;;;;;;;3.30;3.08;;;18.00;44.20;;;;;;5012674;28;20205;-78
2023/04/07 01:11:37;;;;;;;3.58;2.90;;;18.00;44.20;;;;;;5033525;28;20200;-78
2023/04/07 01:14:05;;;;;;;3.33;3.03;;;18.00;44.20;;;;;;5027072;28;20208;-77
2023/04/07 01:16:56;;;;;;;3.22;2.92;;;17.90;44.10;;;;;;5017065;28;20201;-77
2023/04/07 01:19:32;;;;;;;3.10;2.90;;;18.00;44.20;;;;;;5014537;28;20201;-77
2023/04/07 01:22:00;;;;;;;3.28;3.00;;;17.90;44.10;;;;;;5014839;28;20267;-77
2023/04/07 01:24:46;;;;;;;3.10;2.78;;;17.90;44.10;;;;;;5014102;28;20216;-77
2023/04/07 01:27:21;;;;;;;2.90;2.70;;;17.90;44.10;;;;;;5014377;28;20224;-77
2023/04/07 01:29:50;;;;;;;3.33;3.08;;;17.90;44.10;;;;;;5013531;28;20659;-77
2023/04/07 01:32:19;;;;;;;3.40;3.10;;;17.90;44.20;;;;;;5013388;28;20225;-77
2023/04/07 01:34:46;;;;;;;3.22;2.90;;;17.90;44.30;;;;;;5013861;28;20192;-77
2023/04/07 01:37:14;;;;;;;3.25;3.00;;;17.80;44.20;;;;;;5013193;28;20207;-77
2023/04/07 01:39:41;;;;;;;2.88;2.67;;;17.80;44.10;;;;;;5013155;28;20201;-77
2023/04/07 01:42:09;;;;;;;3.03;2.83;;;17.90;44.40;;;;;;4996791;28;20271;-77
2023/04/07 01:44:36;;;;;;;2.92;2.63;;;17.90;44.40;;;;;;5014151;28;20216;-77
2023/04/07 01:47:05;;;;;;;2.95;2.75;;;17.80;44.30;;;;;;5013125;28;20199;-77
2023/04/07 01:49:32;;;;;;;4.40;2.90;;;17.80;44.30;;;;;;5013121;28;20201;-77
2023/04/07 01:51:59;;;;;;;3.08;2.88;;;17.80;44.40;;;;;;5012908;28;20189;-77
2023/04/07 01:54:27;;;;;;;3.65;2.90;;;17.80;44.40;;;;;;5013043;28;20196;-77
2023/04/07 01:56:55;;;;;;;3.10;2.80;;;17.80;44.40;;;;;;5013035;28;20200;-77
2023/04/07 01:59:23;;;;;;;3.25;2.95;;;17.80;44.40;;;;;;5012970;28;20204;-77
2023/04/07 02:01:50;;;;;;;2.67;2.47;;;17.80;44.30;;;;;;4996427;28;20193;-77
2023/04/07 02:04:20;;;;;;;2.80;2.60;;;17.80;44.40;;;;;;5013065;28;20224;-77
2023/04/07 02:06:50;;;;;;;3.15;2.92;;;17.80;44.50;;;;;;5013308;28;20303;-77
2023/04/07 02:09:21;;;;;;;3.00;2.70;;;17.70;44.30;;;;;;5014092;28;20270;-77
2023/04/07 02:11:49;;;;;;;3.15;2.95;;;17.70;44.40;;;;;;5013440;28;20657;-77
2023/04/07 02:14:19;;;;;;;3.20;2.90;;;17.70;44.40;;;;;;5012761;28;20207;-76
2023/04/07 02:17:00;;;;;;;2.60;2.40;;;17.70;44.40;;;;;;5013866;28;20188;-76
2023/04/07 02:19:29;;;;;;;2.95;2.75;;;17.70;44.50;;;;;;5012677;28;20670;-77
2023/04/07 02:21:56;;;;;;;3.22;2.95;;;17.70;44.50;;;;;;5012488;28;20683;-77
2023/04/07 02:24:23;;;;;;;2.75;2.55;;;17.70;44.60;;;;;;4996415;28;20732;-77
2023/04/07 02:26:50;;;;;;;3.33;2.72;;;17.70;44.50;;;;;;5012788;28;20251;-77
2023/04/07 02:29:17;;;;;;;2.95;2.75;;;17.60;44.50;;;;;;4996380;28;20197;-77
2023/04/07 02:31:45;;;;;;;2.88;2.67;;;17.70;44.50;;;;;;5013289;28;20618;-77
2023/04/07 02:34:12;;;;;;;3.03;2.83;;;17.60;44.50;;;;;;5012567;28;20196;-77
2023/04/07 02:36:40;;;;;;;3.08;2.78;;;17.70;44.70;;;;;;4996538;28;20208;-77
2023/04/07 02:39:08;;;;;;;2.90;2.70;;;17.60;44.50;;;;;;5012452;28;20595;-77
2023/04/07 02:41:35;;;;;;;2.95;2.67;;;17.60;44.50;;;;;;5012465;28;20201;-77
2023/04/07 02:44:03;;;;;;;3.20;3.00;;;17.60;44.50;;;;;;5012316;28;20224;-77
2023/04/07 02:46:29;;;;;;;3.17;2.92;;;17.60;44.50;;;;;;4996492;28;20542;-77
2023/04/07 02:48:57;;;;;;;3.05;2.75;;;17.60;44.50;;;;;;5012522;28;20204;-77
2023/04/07 02:51:24;;;;;;;4.57;2.90;;;17.60;44.60;;;;;;5012421;28;20729;-77
2023/04/07 02:53:53;;;;;;;3.30;3.00;;;17.60;44.70;;;;;;5012621;28;20223;-77
2023/04/07 02:56:20;;;;;;;2.80;2.60;;;17.60;44.70;;;;;;5012560;28;20634;-77
2023/04/07 02:58:47;;;;;;;3.25;3.00;;;17.60;44.70;;;;;;5012634;28;20643;-77
2023/04/07 03:01:14;;;;;;;3.30;3.00;;;17.60;44.70;;;;;;4996385;28;20288;-77
2023/04/07 03:03:43;;;;;;;3.08;2.85;;;17.60;44.70;;;;;;5012569;28;20369;-77
2023/04/07 03:06:18;;;;;;;3.08;2.88;;;17.60;44.70;;;;;;5012489;28;20200;-77
2023/04/07 03:09:01;;;;;;;3.75;3.25;;;17.60;44.70;;;;;;5013036;28;20247;-77
2023/04/07 03:11:28;;;;;;;3.17;2.90;;;17.60;44.70;;;;;;5012618;28;20208;-77
2023/04/07 03:13:57;;;;;;;3.42;3.13;;;17.60;44.60;;;;;;5012192;28;20580;-77
2023/04/07 03:16:26;;;;;;;2.92;2.70;;;17.60;44.60;;;;;;5012538;28;20292;-77
2023/04/07 03:19:00;;;;;;;3.20;2.95;;;17.60;44.70;;;;;;5012318;28;20203;-77
2023/04/07 03:21:30;;;;;;;2.88;2.67;;;17.60;44.80;;;;;;5012474;28;20279;-77
2023/04/07 03:23:58;;;;;;;2.88;2.67;;;17.60;44.90;;;;;;5012649;28;20240;-77
2023/04/07 03:26:26;;;;;;;3.10;2.78;;;17.60;44.90;;;;;;5013836;28;20192;-77
2023/04/07 03:28:54;;;;;;;2.83;2.63;;;17.60;44.90;;;;;;5016122;28;20232;-77
2023/04/07 03:31:21;;;;;;;3.15;2.85;;;17.60;44.90;;;;;;5016110;28;20189;-77
2023/04/07 03:33:50;;;;;;;2.78;2.58;;;17.60;45.00;;;;;;5016256;28;20208;-77
2023/04/07 03:36:18;;;;;;;2.60;2.40;;;17.60;45.10;;;;;;5016119;28;20212;-77
2023/04/07 03:38:47;;;;;;;2.92;2.72;;;17.70;44.90;;;;;;5001635;28;20197;-78
2023/04/07 03:41:16;;;;;;;2.50;2.30;;;17.70;44.70;;;;;;5017078;28;20243;-77
2023/04/07 03:43:45;;;;;;;3.03;2.75;;;17.80;44.50;;;;;;5016425;28;20589;-77
2023/04/07 03:46:13;;;;;;;3.15;2.88;;;17.80;44.20;;;;;;5017178;28;20193;-78
2023/04/07 03:48:40;;;;;;;2.70;2.50;;;17.90;44.40;;;;;;5016301;28;20228;-78
2023/04/07 03:51:08;;;;;;;3.70;2.47;;;17.90;44.30;;;;;;5016001;28;20203;-78
2023/04/07 03:53:36;;;;;;;3.35;2.80;;;17.90;44.20;;;;;;5015891;28;20266;-78
2023/04/07 03:56:23;;;;;;;3.10;2.83;;;17.90;44.20;;;;;;5017371;28;20192;-77
2023/04/07 03:58:52;;;;;;;3.00;2.80;;;17.90;44.30;;;;;;5015753;28;20582;-77
2023/04/07 04:01:26;;;;;;;3.80;3.00;;;17.80;44.30;;;;;;5015870;28;20203;-77
2023/04/07 04:03:54;;;;;;;3.20;2.90;;;17.80;44.30;;;;;;4999649;28;20225;-77
2023/04/07 04:06:25;;;;;;;2.90;2.70;;;17.80;44.40;;;;;;5015217;28;20201;-77
2023/04/07 04:08:54;;;;;;;2.60;2.40;;;17.80;44.40;;;;;;5015774;28;20277;-77
2023/04/07 04:11:23;;;;;;;3.03;2.83;;;17.80;44.40;;;;;;5015414;28;20220;-75
2023/04/07 04:13:59;;;;;;;2.95;2.60;;;17.70;44.40;;;;;;5015274;28;20212;-75
2023/04/07 04:16:27;;;;;;;2.60;2.40;;;17.70;44.40;;;;;;5014962;28;20288;-75
2023/04/07 04:18:57;;;;;;;3.00;2.80;;;17.70;44.50;;;;;;5015307;28;20195;-75
2023/04/07 04:21:26;;;;;;;2.80;2.60;;;17.80;44.50;;;;;;5015092;28;20200;-75
2023/04/07 04:23:54;;;;;;;2.70;2.50;;;17.70;44.50;;;;;;5014856;28;20738;-75
2023/04/07 04:26:24;;;;;;;3.40;3.10;;;17.80;44.60;;;;;;5014877;28;20197;-75
2023/04/07 04:28:55;;;;;;;3.28;3.00;;;17.70;44.50;;;;;;5015243;28;20698;-76
2023/04/07 04:31:24;;;;;;;2.80;2.60;;;17.70;44.50;;;;;;5015176;28;20197;-76
2023/04/07 04:33:51;;;;;;;3.47;3.17;;;17.70;44.50;;;;;;5014997;28;20275;-76
2023/04/07 04:36:18;;;;;;;3.22;3.00;;;17.70;44.40;;;;;;5014819;28;20203;-76
2023/04/07 04:38:46;;;;;;;2.85;2.65;;;17.70;44.40;;;;;;5014956;28;20220;-75
2023/04/07 04:41:17;;;;;;;2.92;2.72;;;17.70;44.40;;;;;;5014975;28;20192;-75
2023/04/07 04:43:44;;;;;;;2.75;2.55;;;17.80;44.50;;;;;;5014837;28;20221;-75
2023/04/07 04:46:17;;;;;;;2.45;2.25;;;17.80;45.00;;;;;;5015708;28;20204;-75
2023/04/07 04:48:46;;;;;;;2.88;2.67;;;17.80;44.50;;;;;;5016202;28;20197;-76
2023/04/07 04:51:14;;;;;;;3.05;2.85;;;17.80;44.40;;;;;;5014884;28;20193;-76
2023/04/07 04:53:42;;;;;;;2.83;2.63;;;17.80;45.10;;;;;;5014742;28;20231;-76
2023/04/07 04:56:09;;;;;;;2.95;2.70;;;17.80;44.40;;;;;;5014941;28;20203;-75
2023/04/07 04:58:44;;;;;;;2.95;2.75;;;17.80;44.40;;;;;;5014463;28;20251;-75
2023/04/07 05:01:15;;;;;;;2.90;2.70;;;17.70;44.30;;;;;;5014977;28;20200;-75
2023/04/07 05:03:52;;;;;;;2.70;2.50;;;17.80;44.30;;;;;;5014812;28;20216;-75
2023/04/07 05:06:27;;;;;;;2.60;2.40;;;17.80;44.40;;;;;;5014853;28;20671;-75
2023/04/07 05:08:57;;;;;;;2.88;2.65;;;17.80;44.50;;;;;;5015810;28;20192;-76
2023/04/07 05:11:30;;;;;;;2.95;2.75;;;17.80;44.40;;;;;;5015002;28;20699;-76
2023/04/07 05:13:57;;;;;;;3.15;2.80;;;17.80;44.40;;;;;;5014606;28;20224;-76
2023/04/07 05:16:24;;;;;;;3.10;2.78;;;17.80;44.40;;;;;;5014880;28;20553;-77
2023/04/07 05:18:54;;;;;;;2.88;2.67;;;17.80;44.40;;;;;;5014359;28;20566;-77
2023/04/07 05:21:21;;;;;;;2.95;2.65;;;17.80;45.00;;;;;;5014392;28;20200;-77
2023/04/07 05:23:50;;;;;;;2.90;2.70;;;17.80;44.30;;;;;;5014105;28;20221;-76
2023/04/07 05:26:21;;;;;;;3.15;2.85;;;17.80;44.30;;;;;;5014623;28;20544;-76
2023/04/07 05:28:50;;;;;;;3.40;3.10;;;17.80;44.30;;;;;;4998080;28;20439;-77
2023/04/07 05:31:20;;;;;;;3.05;2.85;;;17.70;44.30;;;;;;5013801;28;20200;-76
2023/04/07 05:33:50;;;;;;;2.88;2.63;;;17.80;44.40;;;;;;5013419;28;20244;-76
2023/04/07 05:36:20;;;;;;;2.70;2.50;;;17.80;44.50;;;;;;5013484;28;20617;-76
2023/04/07 05:38:47;;;;;;;3.00;2.70;;;17.80;44.50;;;;;;5013403;28;20235;-76
2023/04/07 05:41:18;;;;;;;3.08;2.80;;;17.80;44.40;;;;;;5013514;28;20566;-75
2023/04/07 05:43:45;;;;;;;2.95;2.67;;;17.80;44.40;;;;;;5013555;28;20228;-75
2023/04/07 05:46:13;;;;;;;3.22;2.95;;;17.80;44.50;;;;;;5013863;28;20203;-77
2023/04/07 05:48:48;;;;;;;2.72;2.53;;;17.80;44.40;;;;;;5013444;28;20199;-77
2023/04/07 05:51:16;;;;;;;3.00;2.78;;;17.80;44.40;;;;;;5013306;28;20754;-77
2023/04/07 05:53:45;;;;;;;3.35;2.63;;;17.80;44.50;;;;;;4997086;28;20635;-76
2023/04/07 05:56:12;;;;;;;3.03;2.80;;;17.80;44.30;;;;;;5013557;28;20233;-77
2023/04/07 05:58:45;;;;;;;2.95;2.75;;;17.90;44.40;;;;;;5013147;28;20200;-76
2023/04/07 06:01:14;;;;;;;3.08;2.88;;;17.80;44.30;;;;;;5013625;28;20193;-76
2023/04/07 06:03:42;;;;;;;3.70;3.40;;;17.90;44.50;;;;;;5013490;28;20240;-76
2023/04/07 06:06:16;;;;;;;3.47;3.17;;;17.90;44.50;;;;;;5013430;28;20604;-76
2023/04/07 06:08:46;;;;;;;3.00;2.80;;;17.90;44.50;;;;;;5014720;28;20192;-76
2023/04/07 06:11:13;;;;;;;3.20;2.90;;;17.90;44.30;;;;;;5013260;28;20255;-77
2023/04/07 06:13:41;;;;;;;2.78;2.58;;;17.90;44.20;;;;;;5013717;28;20226;-77
2023/04/07 06:16:09;;;;;;;2.90;2.70;;;18.10;44.30;;;;;;5013550;28;20193;-77
2023/04/07 06:18:37;;;;;;;2.90;2.67;;;18.20;44.20;;;;;;5013822;28;20227;-77
2023/04/07 06:21:06;;;;;;;2.63;2.42;;;18.20;43.90;;;;;;5013372;28;20204;-77
2023/04/07 06:23:33;;;;;;;2.80;2.60;;;18.30;43.90;;;;;;5013348;28;20223;-77
2023/04/07 06:26:02;;;;;;;2.85;2.65;;;18.30;43.70;;;;;;5013514;28;20296;-76
2023/04/07 06:28:30;;;;;;;2.90;2.70;;;18.30;43.60;;;;;;5013176;28;20196;-76
2023/04/07 06:30:58;;;;;;;2.80;2.60;;;18.40;43.50;;;;;;5013588;28;20255;-76
2023/04/07 06:33:27;;;;;;;2.67;2.47;;;18.50;43.60;;;;;;5013193;28;20247;-76
2023/04/07 06:35:55;;;;;;;2.80;2.60;;;18.50;43.60;;;;;;5013265;28;20231;-77
2023/04/07 06:38:23;;;;;;;3.10;2.90;;;18.50;43.40;;;;;;4997165;28;20235;-77
2023/04/07 06:40:51;;;;;;;2.80;2.60;;;18.60;43.40;;;;;;5012975;28;20667;-77
2023/04/07 06:43:19;;;;;;;3.20;2.90;;;18.60;43.30;;;;;;5013226;28;20227;-76
2023/04/07 06:45:55;;;;;;;2.80;2.60;;;18.60;43.30;;;;;;5015500;28;20205;-78
2023/04/07 06:48:22;;;;;;;2.92;2.70;;;18.60;43.20;;;;;;5014649;28;20258;-77
2023/04/07 06:50:49;;;;;;;3.35;3.05;;;18.60;43.10;;;;;;5012885;28;20232;-77
2023/04/07 06:53:16;;;;;;;3.05;2.75;;;18.70;42.90;;;;;;4996303;28;20223;-77
2023/04/07 06:55:44;;;;;;;3.03;2.83;;;18.70;42.90;;;;;;5012556;28;20201;-77
2023/04/07 06:58:11;;;;;;;2.95;2.75;;;18.70;42.90;;;;;;4996202;28;20299;-77
2023/04/07 07:00:40;;;;;;;2.83;2.63;;;18.70;42.80;;;;;;5012462;28;20205;-77
2023/04/07 07:03:06;;;;;;;2.80;2.60;;;18.70;42.70;;;;;;5016707;28;20216;-77
2023/04/07 07:05:33;;;;;;;2.92;2.72;;;18.80;42.70;;;;;;5016595;28;20220;-77
2023/04/07 07:08:01;;;;;;;2.95;2.75;;;18.90;42.60;;;;;;5016444;28;20263;-77
2023/04/07 07:10:28;;;;;;;2.88;2.67;;;18.80;42.50;;;;;;5016217;28;20251;-77
2023/04/07 07:12:55;;;;;;;3.03;2.83;;;18.90;42.50;;;;;;5016263;28;20577;-77
2023/04/07 07:15:22;;;;;;;2.88;2.63;;;18.90;42.40;;;;;;5016362;28;20666;-77
2023/04/07 07:17:51;;;;;;;2.83;2.63;;;18.90;42.30;;;;;;5017266;28;20200;-77
2023/04/07 07:20:18;;;;;;;3.05;2.85;;;18.90;42.10;;;;;;5016256;28;20204;-77
2023/04/07 07:22:45;;;;;;;3.33;3.05;;;19.00;42.20;;;;;;5016169;28;20762;-77
2023/04/07 07:25:14;;;;;;;3.17;2.95;;;19.00;42.20;;;;;;5017434;28;20231;-77
2023/04/07 07:27:41;;;;;;;4.03;3.33;;;19.00;42.10;;;;;;5001806;28;20204;-77
2023/04/07 07:30:09;;;;;;;3.35;3.05;;;19.10;42.00;;;;;;5017042;28;20200;-76
2023/04/07 07:32:36;;;;;;;3.05;2.75;;;19.10;42.00;;;;;;5016842;28;20205;-76
2023/04/07 07:35:05;;;;;;;2.63;2.42;;;19.10;41.80;;;;;;5015811;28;20214;-76
2023/04/07 07:37:32;;;;;;;3.30;3.10;;;19.20;41.90;;;;;;4999529;28;20296;-77
2023/04/07 07:39:59;;;;;;;2.88;2.67;;;19.20;41.80;;;;;;5015834;28;20204;-77
2023/04/07 07:42:26;;;;;;;3.13;2.83;;;19.20;41.70;;;;;;5015606;28;20311;-77
2023/04/07 07:44:53;;;;;;;2.95;2.75;;;19.30;41.60;;;;;;5015700;28;20213;-77
2023/04/07 07:47:21;;;;;;;3.92;3.38;;;19.40;41.60;;;;;;5015783;28;20193;-77
2023/04/07 07:49:48;;;;;;;2.45;2.30;;;19.40;41.30;;;;;;5015459;28;20278;-76
2023/04/07 07:52:17;;;;;;;3.00;2.70;;;19.40;41.40;;;;;;5015189;28;20717;-76
2023/04/07 07:54:44;;;;;;;3.85;2.60;;;19.40;41.30;;;;;;4999634;28;20609;-76
2023/04/07 07:57:12;;;;;;;3.22;2.92;;;19.50;41.40;;;;;;5015853;28;20232;-76
2023/04/07 07:59:40;;;;;;;3.25;3.05;;;19.50;41.20;;;;;;4999296;28;20648;-76
2023/04/07 08:02:07;;;;;;;2.92;2.72;;;19.60;41.20;;;;;;5015150;28;20227;-76
2023/04/07 08:04:35;;;;;;;3.53;3.22;;;19.60;41.30;;;;;;5014889;28;20205;-76
2023/04/07 08:07:02;;;;;;;3.30;2.92;;;19.70;41.10;;;;;;5014834;28;20217;-76
2023/04/07 08:09:31;;;;;;;3.50;3.20;;;19.90;41.20;;;;;;5014861;28;20284;-76
2023/04/07 08:11:58;;;;;;;2.75;2.55;;;20.10;41.00;;;;;;4998467;28;20200;-76
2023/04/07 08:14:25;;;;;;;3.42;3.13;;;20.30;40.60;;;;;;5015459;28;20291;-76
2023/04/07 08:16:52;;;;;;;2.80;2.60;;;20.40;40.20;;;;;;5015228;28;20193;-76
2023/04/07 08:19:19;;;;;;;2.90;2.70;;;20.50;40.10;;;;;;4998631;28;20205;-76
2023/04/07 08:21:47;;;;;;;3.10;2.90;;;20.60;40.60;;;;;;5016115;28;20671;-76
2023/04/07 08:24:14;;;;;;;2.92;2.72;;;20.60;39.90;;;;;;5015852;28;20225;-76
2023/04/07 08:26:44;;;;;;;3.05;2.85;;;20.70;39.90;;;;;;5014627;28;20292;-76
2023/04/07 08:29:11;;;;;;;2.83;2.63;;;20.80;39.70;;;;;;5015070;28;20651;-76
2023/04/07 08:31:38;;;;;;;2.10;2.00;;;20.90;39.80;;;;;;5014460;28;20196;-76
2023/04/07 08:34:05;;;;;;;2.45;2.28;;;20.90;39.70;;;;;;5015780;28;20263;-76
2023/04/07 08:36:33;;;;;;;2.30;2.10;;;21.00;39.50;;;;;;5014768;28;20204;-76
2023/04/07 08:39:01;;;;;;;2.20;2.00;;;21.20;39.40;;;;;;5014709;28;20209;-77
2023/04/07 08:41:30;;;;;;;2.15;1.95;;;21.30;39.10;;;;;;5014941;28;20651;-77
2023/04/07 08:43:59;;;;;;;1.98;1.88;;;21.40;39.10;;;;;;4998563;28;20289;-77
2023/04/07 08:46:26;;;;;;;2.30;1.88;;;21.50;39.10;;;;;;5014998;28;20718;-77
2023/04/07 08:48:54;;;;;;;2.08;1.92;;;21.60;38.90;;;;;;5015101;28;20212;-76
2023/04/07 08:51:27;;;;;;;2.10;1.90;;;21.70;38.70;;;;;;5017073;28;20284;-79
2023/04/07 08:53:54;;;;;;;2.00;1.90;;;21.80;38.40;;;;;;5017245;28;20217;-79
2023/04/07 08:56:21;;;;;;;1.70;1.60;;;21.90;38.20;;;;;;5017418;28;20208;-79
2023/04/07 08:58:49;;;;;;;1.70;1.60;;;21.90;38.20;;;;;;5018338;28;20196;-79
2023/04/07 09:01:17;;;;;;;1.60;1.50;;;22.00;38.20;;;;;;5016956;28;20201;-79
2023/04/07 09:03:45;;;;;;;3.20;1.83;;;22.00;38.30;;;;;;5017943;28;20240;-79
2023/04/07 09:06:12;;;;;;;1.80;1.70;;;21.90;38.20;;;;;;5017233;28;20217;-79
2023/04/07 09:08:39;;;;;;;2.97;2.13;;;21.90;38.40;;;;;;5016729;28;20203;-79
2023/04/07 09:11:06;;;;;;;2.42;2.05;;;21.90;38.70;;;;;;5016954;28;20659;-78
2023/04/07 09:13:33;;;;;;;2.10;1.95;;;21.90;38.70;;;;;;5016840;28;20239;-79
2023/04/07 09:16:02;;;;;;;2.35;1.70;;;21.90;39.30;;;;;;5016735;28;20614;-79
2023/04/07 09:18:30;;;;;;;2.97;2.30;;;21.90;39.50;;;;;;5014906;28;20571;-78
2023/04/07 09:20:57;;;;;;;45.30;19.17;;;21.90;39.20;;;;;;5014917;28;20287;-78
2023/04/07 09:23:29;;;;;;;22.75;11.50;;;21.90;40.00;;;;;;5014378;28;20678;-78
2023/04/07 09:25:58;;;;;;;79.90;43.42;;;21.90;40.20;;;;;;5015414;28;20773;-79
2023/04/07 09:28:25;;;;;;;61.88;31.85;;;21.90;40.40;;;;;;5015694;28;20255;-79
2023/04/07 09:30:53;;;;;;;43.47;26.27;;;21.80;41.10;;;;;;5017932;28;20208;-80
2023/04/07 09:33:26;;;;;;;35.15;20.75;;;21.80;40.60;;;;;;5016504;28;20217;-79
2023/04/07 09:35:55;;;;;;;54.08;29.20;;;21.90;40.80;;;;;;5016360;28;20212;-79
2023/04/07 09:38:22;;;;;;;30.50;18.60;;;22.00;41.40;;;;;;5015271;28;20212;-80
2023/04/07 09:40:50;;;;;;;34.88;21.25;;;22.00;40.80;;;;;;5015371;28;20203;-78
2023/04/07 09:43:19;;;;;;;32.38;17.80;;;22.00;41.10;;;;;;5015660;28;20591;-79
2023/04/07 09:45:45;;;;;;;29.30;17.33;;;22.10;40.60;;;;;;5015766;28;20216;-79
2023/04/07 09:48:19;;;;;;;25.42;16.20;;;22.10;40.80;;;;;;5015553;28;20200;-79
2023/04/07 09:50:48;;;;;;;21.85;14.30;;;22.20;41.00;;;;;;5015391;28;20592;-79
2023/04/07 09:53:18;;;;;;;27.35;16.05;;;22.20;40.90;;;;;;5015708;28;20220;-80
2023/04/07 09:55:45;;;;;;;24.52;14.55;;;22.20;40.90;;;;;;5015561;28;20197;-80
2023/04/07 09:58:13;;;;;;;22.30;13.38;;;22.20;40.90;;;;;;5017324;28;20189;-80
2023/04/07 10:00:40;;;;;;;20.67;13.15;;;22.20;40.50;;;;;;5015315;28;20291;-79
2023/04/07 10:03:07;;;;;;;18.58;11.32;;;22.20;40.70;;;;;;5015158;28;20247;-79
2023/04/07 10:05:35;;;;;;;17.05;11.55;;;22.10;40.70;;;;;;5014701;28;20222;-79
2023/04/07 10:08:02;;;;;;;20.48;12.73;;;22.10;40.60;;;;;;5014612;28;20205;-79
2023/04/07 10:10:31;;;;;;;17.65;11.25;;;22.10;40.80;;;;;;5014961;28;20201;-79
2023/04/07 10:12:58;;;;;;;18.20;12.02;;;22.10;41.00;;;;;;5013445;28;20235;-78
2023/04/07 10:15:25;;;;;;;21.30;12.75;;;22.10;40.70;;;;;;5014193;28;20197;-79
2023/04/07 10:17:52;;;;;;;19.58;10.77;;;22.10;40.90;;;;;;5014712;28;20203;-79
2023/04/07 10:20:20;;;;;;;16.00;10.88;;;22.20;40.80;;;;;;5014740;28;20205;-79
2023/04/07 10:22:48;;;;;;;18.00;10.85;;;22.20;40.80;;;;;;5015965;28;20216;-79
2023/04/07 10:25:17;;;;;;;15.10;10.15;;;22.20;40.90;;;;;;5014139;28;20220;-79
2023/04/07 10:27:50;;;;;;;17.45;9.90;;;22.20;40.40;;;;;;5013662;28;20200;-79
2023/04/07 10:30:20;;;;;;;13.82;9.80;;;22.20;40.40;;;;;;5015454;28;20187;-80
2023/04/07 10:32:47;;;;;;;14.18;9.82;;;22.20;40.00;;;;;;5013465;28;20248;-80
2023/04/07 10:35:16;;;;;;;14.90;9.95;;;22.20;40.20;;;;;;5014372;28;20204;-79
2023/04/07 10:37:48;;;;;;;15.77;9.38;;;22.20;40.20;;;;;;5018934;28;20204;-79
2023/04/07 10:40:30;;;;;;;14.40;9.10;;;22.20;40.30;;;;;;5018590;28;20197;-79
2023/04/07 10:42:59;;;;;;;11.88;8.73;;;22.20;40.30;;;;;;5017805;28;20691;-79
2023/04/07 10:45:58;;;;;;;11.10;8.32;;;22.20;40.30;;;;;;5018242;28;20315;-79
2023/04/07 10:48:27;;;;;;;14.18;8.88;;;22.20;40.30;;;;;;5017988;28;20189;-78
2023/04/07 10:51:14;;;;;;;15.15;8.70;;;22.20;40.30;;;;;;5017194;28;20196;-79
2023/04/07 10:54:19;;;;;;;11.18;8.18;;;22.20;40.30;;;;;;5018226;28;20702;-79
2023/04/07 10:57:10;;;;;;;12.70;8.45;;;22.30;40.20;;;;;;5017659;28;20185;-79
2023/04/07 10:59:40;;;;;;;11.40;7.93;;;22.30;40.10;;;;;;5017104;28;20193;-79
2023/04/07 11:02:33;;;;;;;13.18;8.00;;;22.30;39.90;;;;;;5017063;28;20223;-79
2023/04/07 11:05:01;;;;;;;13.15;7.97;;;22.20;39.70;;;;;;5017561;28;20267;-79
2023/04/07 11:07:45;;;;;;;11.90;7.68;;;22.30;40.00;;;;;;5018221;28;20208;-79
2023/04/07 11:10:14;;;;;;;10.35;7.72;;;22.20;39.90;;;;;;5016696;28;20211;-79
2023/04/07 11:12:41;;;;;;;13.27;7.68;;;22.20;39.90;;;;;;5016920;28;20244;-79
2023/04/07 11:15:20;;;;;;;10.68;7.57;;;22.20;40.00;;;;;;5016597;28;20284;-78
2023/04/07 11:17:47;;;;;;;9.95;7.28;;;22.20;40.00;;;;;;5000830;28;20663;-79
2023/04/07 11:20:14;;;;;;;10.93;7.80;;;22.20;40.00;;;;;;5016423;28;20251;-79
2023/04/07 11:22:42;;;;;;;10.73;6.60;;;22.20;39.80;;;;;;5016595;28;20255;-79
2023/04/07 11:25:21;;;;;;;10.88;7.60;;;22.20;39.70;;;;;;4983720;28;20223;-79
2023/04/07 11:27:49;;;;;;;10.52;7.47;;;22.20;39.90;;;;;;5017392;28;20447;-79
2023/04/07 11:30:18;;;;;;;9.80;7.10;;;22.20;39.90;;;;;;5019179;28;20201;-79
2023/04/07 11:32:50;;;;;;;14.13;7.30;;;22.20;40.50;;;;;;5018701;28;20224;-79
2023/04/07 11:35:17;;;;;;;10.20;6.88;;;22.20;40.40;;;;;;5020726;28;20284;-79
2023/04/07 11:37:44;;;;;;;9.88;6.63;;;22.20;40.50;;;;;;5002916;28;20655;-80
2023/04/07 11:40:15;;;;;;;10.65;6.35;;;22.20;40.80;;;;;;5019117;28;20664;-80
2023/04/07 11:42:45;;;;;;;9.93;6.22;;;22.20;40.80;;;;;;5019653;28;20583;-80
2023/04/07 11:45:16;;;;;;;9.65;6.85;;;22.10;40.90;;;;;;5020325;28;20220;-80
2023/04/07 11:47:43;;;;;;;8.23;6.30;;;22.10;40.70;;;;;;5019040;28;20224;-80
2023/04/07 11:50:11;;;;;;;11.77;6.60;;;22.10;40.60;;;;;;5020458;28;20272;-80
2023/04/07 11:52:42;;;;;;;10.82;6.72;;;22.10;41.30;;;;;;5022337;28;20224;-80
2023/04/07 11:55:17;;;;;;;8.57;5.95;;;22.00;41.50;;;;;;5023340;28;20659;-80
2023/04/07 11:57:44;;;;;;;7.47;5.63;;;22.00;41.30;;;;;;5015727;28;20203;-80
2023/04/07 12:00:13;;;;;;;9.52;6.25;;;22.00;41.30;;;;;;5030865;28;20223;-80
2023/04/07 12:02:40;;;;;;;7.97;6.18;;;22.00;41.00;;;;;;5021169;28;20220;-80
2023/04/07 12:05:09;;;;;;;8.80;5.65;;;21.90;40.80;;;;;;5018297;28;20205;-80
2023/04/07 12:07:38;;;;;;;8.00;6.13;;;21.90;40.70;;;;;;5017675;28;20215;-80
2023/04/07 12:10:21;;;;;;;9.05;5.70;;;21.90;40.60;;;;;;5020005;28;20268;-80
2023/04/07 12:12:48;;;;;;;8.60;5.97;;;21.90;40.80;;;;;;5017636;28;20216;-81
2023/04/07 12:15:15;;;;;;;8.93;6.22;;;21.80;40.70;;;;;;5018625;28;20207;-81
2023/04/07 12:17:45;;;;;;;11.48;6.45;;;21.70;40.70;;;;;;5003457;28;20251;-81
2023/04/07 12:20:12;;;;;;;9.75;6.32;;;21.70;40.70;;;;;;5019060;28;20224;-80
2023/04/07 12:22:41;;;;;;;9.95;6.38;;;21.70;40.70;;;;;;5018498;28;20227;-80
2023/04/07 12:25:08;;;;;;;8.27;5.68;;;21.70;40.80;;;;;;5017658;28;20259;-80
2023/04/07 12:27:35;;;;;;;10.20;6.20;;;21.70;41.00;;;;;;5002426;28;20263;-80
2023/04/07 12:30:03;;;;;;;7.65;5.85;;;21.70;41.10;;;;;;5017585;28;20699;-80
2023/04/07 12:32:31;;;;;;;8.00;5.88;;;21.60;41.10;;;;;;5018011;28;20216;-80
2023/04/07 12:34:58;;;;;;;8.20;5.50;;;21.50;41.20;;;;;;5017734;28;20346;-80
2023/04/07 12:37:25;;;;;;;9.25;6.22;;;21.50;41.30;;;;;;5017815;28;20272;-80
2023/04/07 12:39:53;;;;;;;7.13;5.18;;;21.40;41.50;;;;;;5018584;28;20209;-81
2023/04/07 12:42:20;;;;;;;9.38;5.47;;;21.50;41.50;;;;;;5018105;28;20241;-80
2023/04/07 12:44:48;;;;;;;8.43;5.45;;;21.50;41.40;;;;;;5016900;28;20208;-80
2023/04/07 12:47:15;;;;;;;7.32;5.15;;;21.50;41.30;;;;;;5016294;28;20255;-80
2023/04/07 12:49:42;;;;;;;8.55;5.43;;;21.50;41.30;;;;;;5016428;28;20208;-80
2023/04/07 12:52:09;;;;;;;8.27;4.78;;;21.50;41.30;;;;;;5019991;28;20228;-80
2023/04/07 12:54:37;;;;;;;6.75;5.00;;;21.50;41.90;;;;;;5021146;28;20201;-80